Time;durP1;ratioP1;P1;durP2;ratioP2;P2;SDS_P1;SDS_P2;PMS_P1;PMS_P2;Temp;Humidity;BMP_temperature;BMP_pressure;BME280_temperature;BME280_humidity;BME280_pressure;Samples;Min_cycle;Max_cycle;Signal;HPM_P1;HPM_P2
2023/08/17 00:00:26;;;;;;;11.60;7.45;;;19.10;99.90;;;;;;4905232;29;20019;-84
2023/08/17 00:02:52;;;;;;;11.35;7.10;;;19.10;99.90;;;;;;4905288;29;20104;-87
2023/08/17 00:05:17;;;;;;;10.52;7.40;;;19.00;99.90;;;;;;4907845;29;20399;-85
2023/08/17 00:07:43;;;;;;;10.63;6.82;;;19.00;99.90;;;;;;4906850;29;20028;-85
2023/08/17 00:10:09;;;;;;;11.20;7.10;;;19.00;99.90;;;;;;4906043;29;20119;-85
2023/08/17 00:12:34;;;;;;;9.45;7.47;;;18.90;99.90;;;;;;4907031;29;20028;-85
2023/08/17 00:15:00;;;;;;;11.68;7.05;;;18.90;99.90;;;;;;4906944;29;20035;-83
2023/08/17 00:17:26;;;;;;;11.88;7.30;;;18.90;99.90;;;;;;4906769;29;20032;-85
2023/08/17 00:19:51;;;;;;;10.35;7.35;;;18.90;99.90;;;;;;4906994;29;20076;-85
2023/08/17 00:22:17;;;;;;;9.18;7.00;;;18.80;99.90;;;;;;4905850;29;20072;-85
2023/08/17 00:24:44;;;;;;;10.80;7.68;;;18.90;99.90;;;;;;4905985;29;20059;-85
2023/08/17 00:27:10;;;;;;;9.13;7.40;;;18.80;99.90;;;;;;4908109;29;20016;-85
2023/08/17 00:29:36;;;;;;;10.90;7.97;;;18.80;99.90;;;;;;4907411;29;20132;-83
2023/08/17 00:32:03;;;;;;;11.80;7.53;;;18.80;99.90;;;;;;4906085;29;20083;-84
2023/08/17 00:34:28;;;;;;;11.93;7.28;;;18.70;99.90;;;;;;4907160;29;20028;-83
2023/08/17 00:36:54;;;;;;;9.55;7.10;;;18.70;99.90;;;;;;4906988;29;20020;-84
2023/08/17 00:39:19;;;;;;;10.40;6.60;;;18.70;99.90;;;;;;4905864;29;20107;-84
2023/08/17 00:41:45;;;;;;;10.68;6.40;;;18.70;99.90;;;;;;4904879;29;21525;-84
2023/08/17 00:44:11;;;;;;;13.02;6.57;;;18.60;99.90;;;;;;4904542;29;20032;-85
2023/08/17 00:46:38;;;;;;;10.00;6.47;;;18.60;99.90;;;;;;4903941;29;20028;-86
2023/08/17 00:49:04;;;;;;;7.65;6.45;;;18.60;99.90;;;;;;4903640;29;20036;-83
2023/08/17 00:51:30;;;;;;;11.48;6.93;;;18.50;99.90;;;;;;4906816;29;20032;-83
2023/08/17 00:53:59;;;;;;;10.05;6.55;;;18.50;99.90;;;;;;4907978;29;20108;-84
2023/08/17 00:56:26;;;;;;;6.80;5.93;;;18.50;99.90;;;;;;4908375;29;20436;-84
2023/08/17 00:58:52;;;;;;;10.68;6.13;;;18.40;99.90;;;;;;4905250;29;20040;-87
2023/08/17 01:01:17;;;;;;;11.60;6.50;;;18.40;99.90;;;;;;4906771;29;20035;-85
2023/08/17 01:03:43;;;;;;;8.50;6.30;;;18.40;99.90;;;;;;4906948;29;21317;-85
2023/08/17 01:06:09;;;;;;;10.05;6.18;;;18.30;99.90;;;;;;4908043;29;20044;-84
2023/08/17 01:08:36;;;;;;;10.18;6.93;;;18.30;99.90;;;;;;4904314;29;20299;-84
2023/08/17 01:11:13;;;;;;;8.57;6.68;;;18.30;99.90;;;;;;4905123;29;20150;-84
2023/08/17 01:13:49;;;;;;;9.63;6.35;;;18.30;99.90;;;;;;4907546;29;20575;-86
2023/08/17 01:16:22;;;;;;;10.50;6.38;;;18.20;99.90;;;;;;4907245;29;20187;-84
2023/08/17 01:18:50;;;;;;;10.48;7.43;;;18.20;99.90;;;;;;4904863;29;20075;-84
2023/08/17 01:21:18;;;;;;;11.27;6.55;;;18.20;99.90;;;;;;4904575;29;20141;-85
2023/08/17 01:23:46;;;;;;;9.00;7.10;;;18.10;99.90;;;;;;4905480;29;20032;-86
2023/08/17 01:26:15;;;;;;;11.80;7.32;;;18.20;99.90;;;;;;4904840;29;20028;-84
2023/08/17 01:28:45;;;;;;;10.65;7.00;;;18.20;99.90;;;;;;4904073;29;20052;-87
2023/08/17 01:31:22;;;;;;;9.32;6.90;;;18.10;99.90;;;;;;4905756;29;20020;-84
2023/08/17 01:33:52;;;;;;;8.73;6.95;;;18.10;99.90;;;;;;4905133;29;20044;-85
2023/08/17 01:36:31;;;;;;;9.13;6.85;;;18.10;99.90;;;;;;4907973;29;20037;-85
2023/08/17 01:39:00;;;;;;;7.32;6.47;;;18.10;99.90;;;;;;4906215;29;21069;-84
2023/08/17 01:41:26;;;;;;;10.85;6.40;;;18.10;99.90;;;;;;4904443;29;20114;-85
2023/08/17 01:43:53;;;;;;;9.02;6.80;;;18.00;99.90;;;;;;4907308;29;20028;-87
2023/08/17 01:46:19;;;;;;;8.18;6.13;;;17.90;99.90;;;;;;4908959;29;20060;-84
2023/08/17 01:48:45;;;;;;;11.43;7.05;;;17.90;99.90;;;;;;4907463;29;20025;-83
2023/08/17 01:51:17;;;;;;;11.07;7.28;;;17.90;99.90;;;;;;4906711;29;20040;-84
2023/08/17 01:53:43;;;;;;;9.55;6.80;;;17.80;99.90;;;;;;4910006;29;20028;-83
2023/08/17 01:56:08;;;;;;;12.88;7.75;;;17.70;99.90;;;;;;4911109;29;20645;-84
2023/08/17 01:58:34;;;;;;;8.70;7.20;;;17.60;99.90;;;;;;4907284;29;20406;-86
2023/08/17 02:00:59;;;;;;;11.27;7.60;;;17.60;99.90;;;;;;4906654;29;20043;-84
2023/08/17 02:03:25;;;;;;;10.13;7.57;;;17.50;99.90;;;;;;4906348;29;20078;-85
2023/08/17 02:05:50;;;;;;;9.73;7.43;;;17.50;99.90;;;;;;4906661;29;20056;-84
2023/08/17 02:08:16;;;;;;;9.95;7.18;;;17.50;99.90;;;;;;4907026;29;20038;-86
2023/08/17 02:10:41;;;;;;;13.02;7.07;;;17.50;99.90;;;;;;4908175;29;20041;-83
2023/08/17 02:13:07;;;;;;;9.73;7.63;;;17.60;99.90;;;;;;4906580;29;20040;-85
2023/08/17 02:15:39;;;;;;;9.13;7.50;;;17.60;99.90;;;;;;4909558;29;20024;-84
2023/08/17 02:18:04;;;;;;;7.90;7.10;;;17.60;99.90;;;;;;4905965;29;20067;-84
2023/08/17 02:20:30;;;;;;;9.20;7.00;;;17.60;99.90;;;;;;4912569;29;20024;-86
2023/08/17 02:22:55;;;;;;;14.30;7.90;;;17.60;99.90;;;;;;4915099;29;20035;-84
2023/08/17 02:25:21;;;;;;;10.48;7.68;;;17.60;99.90;;;;;;4916532;29;20044;-84
2023/08/17 02:27:46;;;;;;;10.10;6.80;;;17.60;99.90;;;;;;4903873;29;20048;-85
2023/08/17 02:30:13;;;;;;;9.55;7.05;;;17.60;99.90;;;;;;4904459;29;20036;-84
2023/08/17 02:32:38;;;;;;;10.27;6.85;;;17.60;99.90;;;;;;4905100;29;20038;-84
2023/08/17 02:35:04;;;;;;;10.52;7.13;;;17.60;99.90;;;;;;4905789;29;20147;-85
2023/08/17 02:37:30;;;;;;;10.27;7.00;;;17.60;99.90;;;;;;4904671;29;20048;-84
2023/08/17 02:39:56;;;;;;;9.38;6.97;;;17.50;99.90;;;;;;4905750;29;20036;-84
2023/08/17 02:42:22;;;;;;;11.27;6.88;;;17.50;99.90;;;;;;4904416;29;20389;-85
2023/08/17 02:44:48;;;;;;;11.50;7.97;;;17.40;99.90;;;;;;4902606;29;20060;-85
2023/08/17 02:47:13;;;;;;;10.50;7.05;;;17.40;99.90;;;;;;4904438;29;20039;-84
2023/08/17 02:49:39;;;;;;;11.23;7.20;;;17.40;99.90;;;;;;4902037;29;20039;-83
2023/08/17 02:52:05;;;;;;;13.38;7.28;;;17.30;99.90;;;;;;4904597;29;20020;-85
2023/08/17 02:54:31;;;;;;;9.45;6.95;;;17.30;99.90;;;;;;4901449;29;20167;-84
2023/08/17 02:56:57;;;;;;;12.70;7.72;;;17.20;99.90;;;;;;4900946;29;20045;-85
2023/08/17 02:59:22;;;;;;;8.63;6.95;;;17.20;99.90;;;;;;4902000;29;20043;-85
2023/08/17 03:01:48;;;;;;;8.98;6.82;;;17.20;99.90;;;;;;4903667;29;20052;-84
2023/08/17 03:04:14;;;;;;;9.13;6.85;;;17.20;99.90;;;;;;4907695;29;20054;-84
2023/08/17 03:06:39;;;;;;;9.93;7.15;;;17.20;99.90;;;;;;4904569;29;20028;-85
2023/08/17 03:09:05;;;;;;;12.80;8.23;;;17.20;99.90;;;;;;4906509;29;20035;-84
2023/08/17 03:11:31;;;;;;;10.32;7.90;;;17.20;99.90;;;;;;4907264;29;20536;-85
2023/08/17 03:14:00;;;;;;;9.20;6.78;;;17.20;99.90;;;;;;4905068;29;20041;-84
2023/08/17 03:16:27;;;;;;;9.27;7.53;;;17.20;99.90;;;;;;4908426;29;20135;-84
2023/08/17 03:18:52;;;;;;;9.30;7.40;;;17.10;99.90;;;;;;4904554;29;20036;-88
2023/08/17 03:21:19;;;;;;;11.88;7.63;;;17.10;99.90;;;;;;4903986;29;20174;-83
2023/08/17 03:23:45;;;;;;;9.45;7.13;;;17.10;99.90;;;;;;4905945;29;20056;-83
2023/08/17 03:26:10;;;;;;;8.57;7.18;;;17.10;99.90;;;;;;4903888;29;20074;-84
2023/08/17 03:28:36;;;;;;;12.35;7.60;;;17.10;99.90;;;;;;4906107;29;20061;-84
2023/08/17 03:31:02;;;;;;;9.25;7.32;;;17.10;99.90;;;;;;4905316;29;20054;-85
2023/08/17 03:33:28;;;;;;;9.25;7.05;;;17.10;99.90;;;;;;4904184;29;20039;-83
2023/08/17 03:35:54;;;;;;;10.23;6.90;;;17.10;99.90;;;;;;4905997;29;20028;-84
2023/08/17 03:38:19;;;;;;;10.60;7.53;;;17.10;99.90;;;;;;4904375;29;20122;-84
2023/08/17 03:40:46;;;;;;;10.55;7.50;;;17.10;99.90;;;;;;4904996;29;20039;-84
2023/08/17 03:43:12;;;;;;;13.32;7.10;;;17.00;99.90;;;;;;4905322;29;20036;-84
2023/08/17 03:45:38;;;;;;;11.93;7.10;;;17.00;99.90;;;;;;4903369;29;20111;-83
2023/08/17 03:48:04;;;;;;;11.23;7.20;;;17.00;99.90;;;;;;4903626;29;20093;-85
2023/08/17 03:50:29;;;;;;;9.00;7.10;;;17.00;99.90;;;;;;4906041;29;20028;-84
2023/08/17 03:52:55;;;;;;;8.85;7.03;;;17.00;99.90;;;;;;4905833;29;20122;-83
2023/08/17 03:55:20;;;;;;;9.85;7.68;;;17.00;99.90;;;;;;4904027;29;20063;-83
2023/08/17 03:57:46;;;;;;;11.77;7.80;;;17.00;99.90;;;;;;4905172;29;20044;-84
2023/08/17 04:00:12;;;;;;;11.02;8.15;;;16.90;99.90;;;;;;4903661;29;20043;-85
2023/08/17 04:02:37;;;;;;;7.95;7.13;;;16.90;99.90;;;;;;4904726;29;20048;-85
2023/08/17 04:05:03;;;;;;;9.00;7.30;;;16.90;99.90;;;;;;4903816;29;20488;-85
2023/08/17 04:07:29;;;;;;;12.10;7.80;;;16.90;99.90;;;;;;4903453;29;20155;-84
2023/08/17 04:09:54;;;;;;;8.00;6.75;;;16.90;99.90;;;;;;4900371;29;20087;-79
2023/08/17 04:12:20;;;;;;;8.48;7.20;;;16.90;99.90;;;;;;4901398;29;20495;-79
2023/08/17 04:14:46;;;;;;;9.88;7.13;;;16.80;99.90;;;;;;4899838;29;20079;-79
2023/08/17 04:17:12;;;;;;;9.65;7.35;;;16.80;99.90;;;;;;4897989;29;20041;-79
2023/08/17 04:19:37;;;;;;;11.65;7.57;;;16.80;99.90;;;;;;4899746;29;20032;-79
2023/08/17 04:22:03;;;;;;;9.48;6.97;;;16.80;99.90;;;;;;4899114;29;20855;-79
2023/08/17 04:24:29;;;;;;;10.48;7.38;;;16.80;99.90;;;;;;4899607;29;20036;-78
2023/08/17 04:26:55;;;;;;;10.10;6.78;;;16.80;99.90;;;;;;4898716;29;20404;-79
2023/08/17 04:29:20;;;;;;;8.68;6.70;;;16.80;99.90;;;;;;4897853;29;20110;-79
2023/08/17 04:31:46;;;;;;;14.73;8.65;;;16.80;99.90;;;;;;4899885;29;20061;-78
2023/08/17 04:34:11;;;;;;;11.18;6.97;;;16.80;99.90;;;;;;4900784;29;20020;-78
2023/08/17 04:36:37;;;;;;;8.73;7.10;;;16.80;99.90;;;;;;4898299;29;20029;-79
2023/08/17 04:39:04;;;;;;;10.77;7.93;;;16.90;99.90;;;;;;4897024;29;20064;-78
2023/08/17 04:41:30;;;;;;;9.63;8.05;;;16.90;99.90;;;;;;4897986;29;20152;-79
2023/08/17 04:43:55;;;;;;;12.45;7.30;;;16.90;99.90;;;;;;4897795;29;20039;-79
2023/08/17 04:46:21;;;;;;;8.25;7.38;;;17.00;99.90;;;;;;4897866;29;20033;-79
2023/08/17 04:48:47;;;;;;;12.07;7.90;;;17.00;99.90;;;;;;4896938;29;20103;-79
2023/08/17 04:51:13;;;;;;;10.27;8.15;;;17.00;99.90;;;;;;4899737;29;20032;-79
2023/08/17 04:53:38;;;;;;;10.38;8.02;;;17.00;99.90;;;;;;4897748;29;20405;-79
2023/08/17 04:56:04;;;;;;;8.48;7.30;;;17.10;99.90;;;;;;4897672;29;20032;-79
2023/08/17 04:58:30;;;;;;;8.52;7.63;;;17.10;99.90;;;;;;4896964;29;20131;-79
2023/08/17 05:00:55;;;;;;;9.68;7.97;;;17.20;99.90;;;;;;4898256;29;20028;-79
2023/08/17 05:03:21;;;;;;;10.82;7.65;;;17.30;99.90;;;;;;4898518;29;20036;-79
2023/08/17 05:05:47;;;;;;;13.00;7.95;;;17.30;99.90;;;;;;4898018;29;20028;-76
2023/08/17 05:08:13;;;;;;;10.43;7.93;;;17.40;99.90;;;;;;4897206;29;20119;-77
2023/08/17 05:10:39;;;;;;;9.95;7.93;;;17.50;99.90;;;;;;4898724;29;20502;-77
2023/08/17 05:13:04;;;;;;;9.30;8.10;;;17.50;99.90;;;;;;4896877;29;20040;-78
2023/08/17 05:15:30;;;;;;;10.15;8.10;;;17.60;99.90;;;;;;4895372;29;20075;-77
2023/08/17 05:17:56;;;;;;;9.02;6.97;;;17.70;99.90;;;;;;4894457;29;20062;-77
2023/08/17 05:20:21;;;;;;;10.45;6.88;;;17.70;99.90;;;;;;4899943;29;20054;-77
2023/08/17 05:22:47;;;;;;;10.48;7.20;;;17.80;99.90;;;;;;4900617;29;20063;-77
2023/08/17 05:25:13;;;;;;;8.40;7.25;;;17.80;99.90;;;;;;4897302;29;20127;-78
2023/08/17 05:27:39;;;;;;;8.95;7.35;;;17.90;99.90;;;;;;4897492;29;20131;-78
2023/08/17 05:30:05;;;;;;;12.40;8.60;;;18.00;99.90;;;;;;4899769;29;20051;-78
2023/08/17 05:32:31;;;;;;;10.55;7.55;;;18.00;99.90;;;;;;4897356;29;20086;-77
2023/08/17 05:34:57;;;;;;;9.48;7.28;;;18.10;99.90;;;;;;4900496;29;20763;-77
2023/08/17 05:37:22;;;;;;;8.02;7.10;;;18.20;99.90;;;;;;4898048;29;20471;-77
2023/08/17 05:39:48;;;;;;;11.35;7.57;;;18.20;99.90;;;;;;4899007;29;20036;-77
2023/08/17 05:42:13;;;;;;;9.25;7.57;;;18.30;99.90;;;;;;4899785;29;20028;-77
2023/08/17 05:44:39;;;;;;;9.88;7.15;;;18.30;99.90;;;;;;4899054;29;20037;-77
2023/08/17 05:47:04;;;;;;;12.13;7.90;;;18.40;99.90;;;;;;4897681;29;20032;-77
2023/08/17 05:49:30;;;;;;;14.30;8.85;;;18.50;99.90;;;;;;4899127;29;20451;-77
2023/08/17 05:51:56;;;;;;;12.05;8.80;;;18.50;99.90;;;;;;4896558;29;20106;-77
2023/08/17 05:54:21;;;;;;;13.40;7.35;;;18.60;99.90;;;;;;4899811;29;20132;-77
2023/08/17 05:56:47;;;;;;;12.05;7.65;;;18.70;99.90;;;;;;4897771;29;20036;-77
2023/08/17 05:59:13;;;;;;;14.80;8.52;;;18.70;99.90;;;;;;4897480;29;20246;-77
2023/08/17 06:01:40;;;;;;;11.52;7.97;;;18.80;99.90;;;;;;4898204;29;20064;-77
2023/08/17 06:04:05;;;;;;;8.48;7.60;;;18.90;99.90;;;;;;4898610;29;20033;-77
2023/08/17 06:06:31;;;;;;;10.90;7.93;;;19.00;99.90;;;;;;4898876;29;20039;-78
2023/08/17 06:08:57;;;;;;;11.45;7.95;;;19.10;99.90;;;;;;4896662;29;20695;-77
2023/08/17 06:11:23;;;;;;;9.65;6.95;;;19.20;99.90;;;;;;4899018;29;20060;-77
2023/08/17 06:13:49;;;;;;;13.52;7.75;;;19.30;99.90;;;;;;4897033;29;20028;-77
2023/08/17 06:16:15;;;;;;;10.02;7.25;;;19.40;99.90;;;;;;4898134;29;20032;-75
2023/08/17 06:18:41;;;;;;;8.23;7.22;;;19.60;99.90;;;;;;4896425;29;20655;-76
2023/08/17 06:21:07;;;;;;;9.80;7.50;;;19.70;99.90;;;;;;4896685;29;20483;-75
2023/08/17 06:23:33;;;;;;;11.73;8.35;;;19.90;99.90;;;;;;4897669;29;20029;-75
2023/08/17 06:25:59;;;;;;;12.18;7.93;;;20.00;99.90;;;;;;4897005;29;20170;-75
2023/08/17 06:28:26;;;;;;;12.38;7.72;;;20.10;99.90;;;;;;4897757;29;20383;-75
2023/08/17 06:30:55;;;;;;;9.95;7.47;;;20.20;99.90;;;;;;4897411;29;20024;-75
2023/08/17 06:33:21;;;;;;;10.02;8.27;;;20.20;99.90;;;;;;4898020;29;20025;-75
2023/08/17 06:35:47;;;;;;;9.55;8.55;;;20.20;99.90;;;;;;4897277;29;20028;-75
2023/08/17 06:38:12;;;;;;;9.32;7.88;;;20.20;99.90;;;;;;4896612;29;20096;-76
2023/08/17 06:40:38;;;;;;;8.88;7.88;;;20.20;99.90;;;;;;4897496;29;20025;-75
2023/08/17 06:43:04;;;;;;;9.65;8.25;;;20.30;99.90;;;;;;4896097;29;20488;-75
2023/08/17 06:45:31;;;;;;;11.80;7.93;;;20.40;99.90;;;;;;4896361;29;20059;-84
2023/08/17 06:47:57;;;;;;;11.15;7.75;;;20.50;99.90;;;;;;4896358;29;20038;-77
2023/08/17 06:50:23;;;;;;;10.88;8.93;;;20.70;99.90;;;;;;4895431;29;20029;-77
2023/08/17 06:52:48;;;;;;;10.48;7.75;;;20.70;99.90;;;;;;4898114;29;20768;-77
2023/08/17 06:55:15;;;;;;;10.70;7.78;;;20.80;99.90;;;;;;4896349;29;20027;-76
2023/08/17 06:57:41;;;;;;;9.38;7.38;;;21.00;99.90;;;;;;4896374;29;20051;-77
2023/08/17 07:00:07;;;;;;;8.30;7.35;;;21.00;99.90;;;;;;4896353;29;20024;-77
2023/08/17 07:02:34;;;;;;;9.32;7.93;;;21.10;99.90;;;;;;4898370;29;20024;-77
2023/08/17 07:05:00;;;;;;;9.68;7.28;;;21.20;99.90;;;;;;4895880;29;20032;-77
2023/08/17 07:07:25;;;;;;;10.35;7.25;;;21.30;99.90;;;;;;4894476;29;20024;-77
2023/08/17 07:09:51;;;;;;;10.00;7.47;;;21.40;99.90;;;;;;4888642;29;20587;-77
2023/08/17 07:12:16;;;;;;;9.35;7.45;;;21.40;99.90;;;;;;4890412;29;20024;-76
2023/08/17 07:14:42;;;;;;;8.30;7.47;;;21.50;99.90;;;;;;4891983;29;20032;-76
2023/08/17 07:17:07;;;;;;;9.85;7.00;;;21.60;99.90;;;;;;4888268;29;20159;-77
2023/08/17 07:19:33;;;;;;;10.35;6.88;;;21.60;99.90;;;;;;4889637;29;20036;-77
2023/08/17 07:21:58;;;;;;;7.57;6.18;;;21.70;99.90;;;;;;4888177;29;20036;-76
2023/08/17 07:24:24;;;;;;;10.25;7.30;;;21.80;99.90;;;;;;4890251;29;20048;-77
2023/08/17 07:26:50;;;;;;;7.63;6.85;;;21.90;99.90;;;;;;4888633;29;20039;-76
2023/08/17 07:29:15;;;;;;;10.25;7.13;;;22.00;99.90;;;;;;4889930;29;20044;-77
2023/08/17 07:31:41;;;;;;;7.88;6.82;;;22.10;99.90;;;;;;4888899;29;20056;-77
2023/08/17 07:34:07;;;;;;;10.75;7.72;;;22.10;99.90;;;;;;4888986;29;20043;-77
2023/08/17 07:36:33;;;;;;;9.55;7.25;;;22.30;99.90;;;;;;4887513;29;20037;-77
2023/08/17 07:38:59;;;;;;;9.07;6.75;;;22.30;99.90;;;;;;4889063;29;20045;-77
2023/08/17 07:41:25;;;;;;;8.52;7.18;;;22.40;99.90;;;;;;4888564;29;20456;-77
2023/08/17 07:43:51;;;;;;;9.25;6.90;;;22.40;99.90;;;;;;4888593;29;20182;-77
2023/08/17 07:46:17;;;;;;;9.80;7.57;;;22.50;99.90;;;;;;4887418;29;20033;-77
2023/08/17 07:48:42;;;;;;;8.30;6.85;;;22.60;99.90;;;;;;4890709;29;20491;-77
2023/08/17 07:51:08;;;;;;;9.10;6.55;;;22.70;99.90;;;;;;4895010;29;20392;-76
2023/08/17 07:53:33;;;;;;;9.88;7.20;;;22.80;99.90;;;;;;4893829;29;20116;-77
2023/08/17 07:55:59;;;;;;;8.27;6.75;;;22.90;99.90;;;;;;4895441;29;20165;-76
2023/08/17 07:58:24;;;;;;;13.68;6.82;;;22.90;99.90;;;;;;4898861;29;20207;-83
2023/08/17 08:00:50;;;;;;;7.43;6.20;;;23.00;99.90;;;;;;4898671;29;20028;-81
2023/08/17 08:03:15;;;;;;;8.70;6.70;;;23.10;99.90;;;;;;4898264;29;20037;-81
2023/08/17 08:05:41;;;;;;;8.35;6.78;;;23.10;99.90;;;;;;4901173;29;20031;-84
2023/08/17 08:08:07;;;;;;;8.32;7.47;;;23.10;99.90;;;;;;4901209;29;20032;-80
2023/08/17 08:10:32;;;;;;;9.30;6.85;;;23.20;99.90;;;;;;4897813;29;20036;-81
2023/08/17 08:12:58;;;;;;;8.68;6.60;;;23.20;99.90;;;;;;4898659;29;20114;-82
2023/08/17 08:15:23;;;;;;;9.88;6.65;;;23.30;99.90;;;;;;4898533;29;20654;-83
2023/08/17 08:17:49;;;;;;;11.88;7.60;;;23.40;99.90;;;;;;4898307;29;20103;-81
2023/08/17 08:20:14;;;;;;;9.27;7.43;;;23.50;99.90;;;;;;4899628;29;20043;-83
2023/08/17 08:22:40;;;;;;;9.10;6.47;;;23.50;99.90;;;;;;4901298;29;20075;-81
2023/08/17 08:25:06;;;;;;;11.32;7.22;;;23.60;99.90;;;;;;4897141;29;20074;-82
2023/08/17 08:27:31;;;;;;;10.23;6.85;;;23.60;99.90;;;;;;4901777;29;20032;-82
2023/08/17 08:29:57;;;;;;;8.77;6.63;;;23.70;99.90;;;;;;4901612;29;20024;-81
2023/08/17 08:32:23;;;;;;;10.15;7.05;;;23.70;99.90;;;;;;4900607;29;20032;-82
2023/08/17 08:34:48;;;;;;;9.35;5.88;;;23.80;99.90;;;;;;4900113;29;20027;-81
2023/08/17 08:37:14;;;;;;;10.77;6.35;;;23.90;99.90;;;;;;4899965;29;20040;-81
2023/08/17 08:39:50;;;;;;;8.40;6.65;;;24.00;99.90;;;;;;4902607;29;20052;-84
2023/08/17 08:42:17;;;;;;;9.95;6.97;;;24.10;99.90;;;;;;4901786;29;20467;-81
2023/08/17 08:44:43;;;;;;;8.90;6.30;;;24.20;99.90;;;;;;4901887;29;20042;-81
2023/08/17 08:47:09;;;;;;;8.43;6.20;;;24.30;99.90;;;;;;4901447;29;20036;-81
2023/08/17 08:49:38;;;;;;;11.38;6.55;;;24.40;99.90;;;;;;4901907;29;20166;-81
2023/08/17 08:52:12;;;;;;;10.88;6.75;;;24.60;99.90;;;;;;4900640;29;20174;-83
2023/08/17 08:54:41;;;;;;;11.63;6.82;;;24.70;99.90;;;;;;4903383;29;20031;-83
2023/08/17 08:57:14;;;;;;;10.52;6.18;;;24.70;99.90;;;;;;4911861;29;20048;-81
2023/08/17 08:59:44;;;;;;;8.77;6.10;;;24.80;99.90;;;;;;4908814;29;20385;-81
2023/08/17 09:02:13;;;;;;;10.55;6.50;;;24.90;99.90;;;;;;4905839;29;20142;-81
2023/08/17 09:04:39;;;;;;;8.40;6.72;;;25.00;99.90;;;;;;4901929;29;20032;-81
2023/08/17 09:07:06;;;;;;;8.75;5.95;;;25.00;99.90;;;;;;4914740;29;20060;-83
2023/08/17 09:09:32;;;;;;;9.50;6.25;;;25.10;99.90;;;;;;4900763;29;20472;-81
2023/08/17 09:11:57;;;;;;;11.60;6.28;;;25.30;99.90;;;;;;4900772;29;20048;-81
2023/08/17 09:14:23;;;;;;;9.32;6.30;;;25.40;99.90;;;;;;4901024;29;20058;-81
2023/08/17 09:16:49;;;;;;;8.27;5.57;;;25.40;99.90;;;;;;4899840;29;20462;-82
2023/08/17 09:19:14;;;;;;;11.65;6.63;;;25.60;99.90;;;;;;4900051;29;20043;-83
2023/08/17 09:21:40;;;;;;;7.80;6.68;;;25.80;99.90;;;;;;4901780;29;20092;-81
2023/08/17 09:24:07;;;;;;;9.85;6.10;;;25.90;99.90;;;;;;4900972;29;20035;-81
2023/08/17 09:26:33;;;;;;;12.25;6.40;;;26.10;99.90;;;;;;4899865;29;20072;-82
2023/08/17 09:28:59;;;;;;;11.05;7.13;;;26.30;99.90;;;;;;4899993;29;20436;-82
2023/08/17 09:31:25;;;;;;;9.07;6.10;;;26.50;99.90;;;;;;4899325;29;20028;-81
2023/08/17 09:33:51;;;;;;;8.98;6.35;;;26.60;99.90;;;;;;4899847;29;20027;-82
2023/08/17 09:36:24;;;;;;;10.82;6.35;;;26.70;99.90;;;;;;4899696;29;20403;-82
2023/08/17 09:38:50;;;;;;;11.13;6.95;;;26.90;99.90;;;;;;4898074;29;20095;-82
2023/08/17 09:41:17;;;;;;;9.05;6.38;;;27.10;99.90;;;;;;4899417;29;20052;-81
2023/08/17 09:43:43;;;;;;;9.13;6.00;;;27.30;99.90;;;;;;4898042;29;20029;-82
2023/08/17 09:46:09;;;;;;;8.30;5.85;;;27.50;99.90;;;;;;4895723;29;21420;-81
2023/08/17 09:48:36;;;;;;;9.45;6.15;;;27.70;99.90;;;;;;4897036;29;20487;-83
2023/08/17 09:51:02;;;;;;;7.50;5.40;;;27.90;99.90;;;;;;4896664;29;20052;-82
2023/08/17 09:53:27;;;;;;;11.60;5.60;;;28.10;99.90;;;;;;4900236;29;20039;-81
2023/08/17 09:55:55;;;;;;;7.18;5.32;;;28.30;99.90;;;;;;4900177;29;20098;-81
2023/08/17 09:58:21;;;;;;;8.63;5.70;;;28.50;99.90;;;;;;4896596;29;20032;-81
2023/08/17 10:00:50;;;;;;;5.93;5.32;;;28.80;99.90;;;;;;4898276;29;20032;-81
2023/08/17 10:03:17;;;;;;;7.28;5.28;;;29.00;99.90;;;;;;4897077;29;20051;-81
2023/08/17 10:05:46;;;;;;;9.82;5.55;;;29.20;99.90;;;;;;4901596;29;20032;-83
2023/08/17 10:08:13;;;;;;;7.63;5.68;;;29.40;99.90;;;;;;4902440;29;20087;-81
2023/08/17 10:10:44;;;;;;;7.78;5.45;;;29.30;99.90;;;;;;4899322;29;20443;-82
2023/08/17 10:13:27;;;;;;;8.70;5.70;;;29.30;99.90;;;;;;4901037;29;20036;-82
2023/08/17 10:16:03;;;;;;;9.55;5.32;;;29.10;99.90;;;;;;4903033;29;20760;-81
2023/08/17 10:18:46;;;;;;;7.97;5.45;;;29.20;99.90;;;;;;4902320;29;20123;-82
2023/08/17 10:21:32;;;;;;;7.00;5.28;;;29.30;99.90;;;;;;4906045;29;20036;-82
2023/08/17 10:23:58;;;;;;;9.02;5.22;;;29.40;99.90;;;;;;4902813;29;20036;-86
2023/08/17 10:26:25;;;;;;;8.63;5.85;;;29.30;99.90;;;;;;4898444;29;21518;-85
2023/08/17 10:28:52;;;;;;;8.52;5.18;;;29.30;99.90;;;;;;4900354;29;20107;-85
2023/08/17 10:31:17;;;;;;;5.82;4.82;;;29.30;99.90;;;;;;4899184;29;20452;-86
2023/08/17 10:33:47;;;;;;;8.15;5.30;;;29.40;99.90;;;;;;4899336;29;20024;-85
2023/08/17 10:36:14;;;;;;;9.38;5.63;;;29.30;99.90;;;;;;4899065;29;20032;-85
2023/08/17 10:38:40;;;;;;;6.93;5.13;;;29.30;99.90;;;;;;4898796;29;20080;-86
2023/08/17 10:41:13;;;;;;;6.93;4.63;;;29.50;99.90;;;;;;4899496;29;20024;-87
2023/08/17 10:43:59;;;;;;;7.13;4.68;;;29.60;99.90;;;;;;4899429;29;20035;-85
2023/08/17 10:46:35;;;;;;;9.93;5.05;;;29.50;99.90;;;;;;4900668;29;20578;-87
2023/08/17 10:49:08;;;;;;;10.30;5.43;;;29.40;99.90;;;;;;4895636;29;20163;-88
2023/08/17 10:51:34;;;;;;;9.18;5.63;;;29.40;99.90;;;;;;4903061;29;20116;-76
2023/08/17 10:54:04;;;;;;;10.02;5.20;;;29.40;99.90;;;;;;4899874;29;20043;-77
2023/08/17 10:56:29;;;;;;;9.48;6.43;;;29.40;99.90;;;;;;4897704;29;20185;-76
2023/08/17 10:59:00;;;;;;;6.38;5.72;;;29.20;99.90;;;;;;4897843;29;20040;-77
2023/08/17 11:01:36;;;;;;;7.82;6.03;;;29.30;99.90;;;;;;4898003;29;20028;-76
2023/08/17 11:04:15;;;;;;;6.85;6.15;;;29.20;99.90;;;;;;4895547;29;20589;-76
2023/08/17 11:06:45;;;;;;;8.13;5.70;;;29.10;99.90;;;;;;4896781;29;20048;-77
2023/08/17 11:09:11;;;;;;;10.80;6.95;;;29.20;99.90;;;;;;4895671;29;20024;-77
2023/08/17 11:11:37;;;;;;;8.80;6.72;;;29.10;99.90;;;;;;4895321;29;20032;-78
2023/08/17 11:14:03;;;;;;;12.13;6.50;;;29.10;99.90;;;;;;4895521;29;20039;-77
2023/08/17 11:16:29;;;;;;;10.18;6.28;;;29.30;99.90;;;;;;4894245;29;20111;-78
2023/08/17 11:18:57;;;;;;;6.15;5.35;;;29.40;99.90;;;;;;4895256;29;20095;-78
2023/08/17 11:21:23;;;;;;;8.38;5.78;;;29.90;99.90;;;;;;4896992;29;20033;-84
2023/08/17 11:23:49;;;;;;;7.50;6.00;;;30.20;99.90;;;;;;4897369;29;20131;-78
2023/08/17 11:26:18;;;;;;;7.75;5.72;;;30.50;99.90;;;;;;4896078;29;20505;-78
2023/08/17 11:28:44;;;;;;;8.35;5.60;;;30.90;99.90;;;;;;4897720;29;20036;-79
2023/08/17 11:31:11;;;;;;;9.73;5.50;;;31.30;99.90;;;;;;4899871;29;20028;-81
2023/08/17 11:33:38;;;;;;;6.82;5.85;;;31.50;99.90;;;;;;4898990;29;20032;-79
2023/08/17 11:36:06;;;;;;;12.40;6.18;;;31.60;99.90;;;;;;4893582;29;20652;-80
2023/08/17 11:38:36;;;;;;;8.75;5.50;;;31.40;99.90;;;;;;4893062;29;20127;-79
2023/08/17 11:41:02;;;;;;;6.75;5.25;;;31.20;99.90;;;;;;4892587;29;20123;-79
2023/08/17 11:43:29;;;;;;;7.05;5.15;;;31.30;99.90;;;;;;4893543;29;20403;-78
2023/08/17 11:45:56;;;;;;;9.80;5.38;;;31.30;99.90;;;;;;4892669;29;21556;-80
2023/08/17 11:48:24;;;;;;;10.35;5.97;;;31.50;99.90;;;;;;4891213;29;20058;-79
2023/08/17 11:50:49;;;;;;;11.38;5.25;;;31.60;99.90;;;;;;4892854;29;20041;-79
2023/08/17 11:53:15;;;;;;;8.05;4.90;;;32.00;99.90;;;;;;4890739;29;20059;-78
2023/08/17 11:55:41;;;;;;;9.50;5.28;;;31.90;99.90;;;;;;4893426;29;20214;-78
2023/08/17 11:58:09;;;;;;;7.03;5.05;;;31.80;99.90;;;;;;4892256;29;20526;-79
2023/08/17 12:00:37;;;;;;;10.45;5.22;;;31.80;99.90;;;;;;4892054;29;20036;-79
2023/08/17 12:03:04;;;;;;;6.45;4.82;;;32.00;99.90;;;;;;4890454;29;20248;-79
2023/08/17 12:05:32;;;;;;;6.55;4.90;;;32.00;99.90;;;;;;4893680;29;20024;-79
2023/08/17 12:08:04;;;;;;;8.20;5.47;;;32.20;99.90;;;;;;4893371;29;20024;-78
2023/08/17 12:10:31;;;;;;;7.40;4.80;;;32.00;99.90;;;;;;4892674;29;21183;-79
2023/08/17 12:13:01;;;;;;;5.97;5.00;;;32.00;99.90;;;;;;4890682;29;21417;-79
2023/08/17 12:15:35;;;;;;;6.75;4.82;;;32.10;99.90;;;;;;4892735;29;20036;-78
2023/08/17 12:18:03;;;;;;;6.32;4.35;;;32.40;99.90;;;;;;4891164;29;20054;-79
2023/08/17 12:20:30;;;;;;;6.60;4.95;;;32.40;99.90;;;;;;4892795;29;20092;-79
2023/08/17 12:22:58;;;;;;;10.57;5.00;;;32.40;99.90;;;;;;4895771;29;20373;-78
2023/08/17 12:25:24;;;;;;;5.40;4.45;;;32.60;99.90;;;;;;4897409;29;20091;-78
2023/08/17 12:27:50;;;;;;;5.72;4.03;;;32.60;99.90;;;;;;4896228;29;20063;-88
2023/08/17 12:30:32;;;;;;;5.72;4.20;;;33.00;99.90;;;;;;4897878;29;20120;-84
2023/08/17 12:32:58;;;;;;;6.57;4.45;;;33.10;99.90;;;;;;4902384;29;20024;-84
2023/08/17 12:35:24;;;;;;;7.38;5.05;;;33.10;99.90;;;;;;4903448;29;20036;-85
2023/08/17 12:37:53;;;;;;;7.10;4.30;;;33.30;99.90;;;;;;4902206;29;20083;-85
2023/08/17 12:40:19;;;;;;;5.20;4.63;;;33.30;99.90;;;;;;4900521;29;21097;-84